Enter the Airport ICAO Code

Search by Airport or City

Current Weather

UATT | Aktobe Airport

Aktobe, Kazakhstan

Last Update 15 Minutes Ago

Clear Sky

Temperature of 31 șC

Light Winds from North

Temperature

31 șC

Dew Point Temperature

10 șC

Relative Humidity

27.52 %

Wind Direction

North (350ș, Ranging from 330ș to 030ș)

Wind Velocity

7 km/h (2 kt)

Gusts

None

Visibility

No Significant Reductions

Sea Level Pressure

1014 hPa (Hectopascals)

Layers of Clouds

None

METAR UATT 031400Z 35002MPS 330V030 CAVOK 31/10 Q1014 NOSIG RMK QFE740/0987

Weather Forecast

UATT | Aktobe Airport

Aktobe, Kazakhstan

Forecast valid for the next 22 Hours

From now on it is expected:

Clear Sky

Light Winds from Variable Directions

In 16 hours it is expected the begining of 6 hours with intermittent periods of:

Moderate Winds from West

Maximum Temperature

35 șC in 21 Hours

Minimum Temperature

19 șC in 10 Hours

TAF UATT 031101Z 0312/0412 VRB01MPS CAVOK TX35/0411Z TN19/0400Z TEMPO 0406/0412 29006MPS